createdAt,value
2018-06-19T00:00:38.607Z,100620.75
2018-06-19T00:03:42.071Z,100620.72
2018-06-19T00:06:45.060Z,100617.67
2018-06-19T00:09:48.851Z,100613.70
2018-06-19T00:12:52.171Z,100623.75
2018-06-19T00:15:55.158Z,100615.45
2018-06-19T00:19:00.318Z,100619.61
2018-06-19T00:22:03.597Z,100613.02
2018-06-19T00:25:06.965Z,100622.88
2018-06-19T00:28:10.190Z,100622.66
2018-06-19T00:31:13.203Z,100619.55
2018-06-19T00:34:16.481Z,100620.85
2018-06-19T00:37:19.953Z,100616.09
2018-06-19T00:40:23.131Z,100611.19
2018-06-19T00:43:26.286Z,100613.09
2018-06-19T00:46:30.167Z,100625.47
2018-06-19T00:49:33.129Z,100619.22
2018-06-19T00:52:36.161Z,100625.86
2018-06-19T00:55:39.131Z,100620.91
2018-06-19T00:58:42.281Z,100626.34
2018-06-19T01:01:45.247Z,100641.38
2018-06-19T01:04:48.218Z,100635.94
2018-06-19T01:07:51.264Z,100641.91
2018-06-19T01:10:54.193Z,100627.28
2018-06-19T01:13:57.153Z,100631.17
2018-06-19T01:17:00.083Z,100632.41
2018-06-19T01:20:05.558Z,100630.31
2018-06-19T01:23:08.503Z,100629.73
2018-06-19T01:26:11.461Z,100630.07
2018-06-19T01:29:14.363Z,100627.75
2018-06-19T01:32:17.849Z,100626.72
2018-06-19T01:35:20.782Z,100629.14
2018-06-19T01:38:23.903Z,100624.43
2018-06-19T01:41:26.805Z,100628.09
2018-06-19T01:44:30.429Z,100606.84
2018-06-19T01:47:33.379Z,100622.52
2018-06-19T01:50:36.489Z,100619.94
2018-06-19T01:53:39.424Z,100621.18
2018-06-19T01:56:42.428Z,100618.12
2018-06-19T01:59:45.340Z,100612.58
2018-06-19T02:02:48.310Z,100613.52
2018-06-19T02:05:51.242Z,100612.95
2018-06-19T02:08:54.205Z,100607.50
2018-06-19T02:11:57.177Z,100617.38
2018-06-19T02:15:00.117Z,100615.90
2018-06-19T02:18:03.065Z,100615.59
2018-06-19T02:21:06.025Z,100617.69
2018-06-19T02:24:08.944Z,100612.55
2018-06-19T02:27:11.846Z,100622.83
2018-06-19T02:30:14.814Z,100624.83
2018-06-19T02:33:17.734Z,100621.80
2018-06-19T02:36:20.674Z,100621.30
2018-06-19T02:39:23.619Z,100633.34
2018-06-19T02:42:26.563Z,100634.31
2018-06-19T02:45:29.502Z,100636.64
2018-06-19T02:48:32.447Z,100640.20
2018-06-19T02:51:35.377Z,100647.16
2018-06-19T02:54:38.317Z,100647.16
2018-06-19T02:57:41.282Z,100641.89
2018-06-19T03:00:44.202Z,100645.61
2018-06-19T03:03:47.162Z,100652.57
2018-06-19T03:06:52.437Z,100654.66
2018-06-19T03:09:55.358Z,100647.92
2018-06-19T03:12:58.310Z,100655.50
2018-06-19T03:16:01.247Z,100654.97
2018-06-19T03:19:04.197Z,100654.58
2018-06-19T03:22:07.119Z,100650.23
2018-06-19T03:25:10.073Z,100651.72
2018-06-19T03:28:13.037Z,100655.83
2018-06-19T03:31:15.976Z,100651.09
2018-06-19T03:34:18.944Z,100653.91
2018-06-19T03:37:21.921Z,100648.90
2018-06-19T03:40:24.884Z,100652.62
2018-06-19T03:43:27.849Z,100659.08
2018-06-19T03:46:30.813Z,100664.56
2018-06-19T03:49:33.727Z,100663.12
2018-06-19T03:52:36.647Z,100669.30
2018-06-19T03:55:39.555Z,100673.00
2018-06-19T03:58:42.530Z,100675.38
2018-06-19T04:01:45.462Z,100692.50
2018-06-19T04:04:48.388Z,100685.38
2018-06-19T04:07:51.302Z,100681.62
2018-06-19T04:11:13.900Z,100693.02
2018-06-19T04:14:16.882Z,100687.13
2018-06-19T04:17:23.809Z,100686.02
2018-06-19T04:20:26.809Z,100692.42
2018-06-19T04:23:30.206Z,100692.69
2018-06-19T04:26:33.750Z,100686.14
2018-06-19T04:29:36.700Z,100694.44
2018-06-19T04:32:44.373Z,100697.89
2018-06-19T04:35:47.454Z,100704.41
2018-06-19T04:38:50.424Z,100702.12
2018-06-19T04:41:53.336Z,100700.20
2018-06-19T04:44:56.281Z,100707.27
2018-06-19T04:47:59.202Z,100698.63
2018-06-19T04:51:02.135Z,100701.33
2018-06-19T04:54:05.132Z,100706.42
2018-06-19T04:57:08.055Z,100706.93
2018-06-19T05:00:10.973Z,100689.37
2018-06-19T05:03:14.021Z,100704.77
2018-06-19T05:06:16.988Z,100696.95
2018-06-19T05:09:19.907Z,100703.21
2018-06-19T05:12:22.845Z,100706.44
2018-06-19T05:15:26.117Z,100710.09
2018-06-19T05:18:29.042Z,100716.08
2018-06-19T05:21:31.967Z,100713.08
2018-06-19T05:24:42.265Z,100709.33
2018-06-19T05:27:45.240Z,100711.55
2018-06-19T05:30:48.178Z,100720.34
2018-06-19T05:33:57.845Z,100715.80
2018-06-19T05:37:00.812Z,100716.27
2018-06-19T05:40:04.134Z,100719.20
2018-06-19T05:43:07.073Z,100721.37
2018-06-19T05:46:09.994Z,100727.71
2018-06-19T05:49:12.954Z,100725.01
2018-06-19T05:52:15.907Z,100731.73
2018-06-19T05:55:18.851Z,100734.71
2018-06-19T05:58:21.831Z,100728.95
2018-06-19T06:01:24.827Z,100720.97
2018-06-19T06:04:27.852Z,100732.30
2018-06-19T06:07:32.398Z,100737.61
2018-06-19T06:10:36.159Z,100738.64
2018-06-19T06:13:39.114Z,100742.85
2018-06-19T06:16:42.190Z,100749.45
2018-06-19T06:19:45.065Z,100748.38
2018-06-19T06:22:47.995Z,100755.69
2018-06-19T06:25:50.953Z,100765.45
2018-06-19T06:28:53.855Z,100766.58
2018-06-19T06:31:56.816Z,100771.09
2018-06-19T06:34:59.757Z,100769.59
2018-06-19T06:38:02.782Z,100771.25
2018-06-19T06:41:05.773Z,100774.89
2018-06-19T06:44:08.678Z,100773.55
2018-06-19T06:47:11.607Z,100780.19
2018-06-19T06:50:14.633Z,100781.84
2018-06-19T06:53:17.561Z,100785.18
2018-06-19T06:56:20.525Z,100788.21
2018-06-19T06:59:23.538Z,100789.14
2018-06-19T07:02:26.424Z,100788.12
2018-06-19T07:05:29.363Z,100789.91
2018-06-19T07:08:32.290Z,100792.05
2018-06-19T07:11:35.210Z,100790.06
2018-06-19T07:14:38.172Z,100794.91
2018-06-19T07:17:41.125Z,100796.89
2018-06-19T07:20:44.046Z,100801.16
2018-06-19T07:23:46.987Z,100798.66
2018-06-19T07:26:49.908Z,100800.73
2018-06-19T07:29:52.853Z,100805.98
2018-06-19T07:32:55.881Z,100804.83
2018-06-19T07:35:58.815Z,100806.53
2018-06-19T07:39:02.205Z,100811.30
2018-06-19T07:42:05.158Z,100802.82
2018-06-19T07:45:08.088Z,100805.61
2018-06-19T07:48:11.004Z,100805.09
2018-06-19T07:51:13.990Z,100809.41
2018-06-19T07:54:16.941Z,100819.44
2018-06-19T07:57:20.353Z,100817.52
2018-06-19T08:00:23.907Z,100817.73
2018-06-19T08:03:26.826Z,100822.03
2018-06-19T08:07:33.340Z,100826.22
2018-06-19T08:10:36.279Z,100832.34
2018-06-19T08:13:39.253Z,100839.70
2018-06-19T08:16:42.209Z,100830.91
2018-06-19T08:19:45.169Z,100837.81
2018-06-19T08:22:48.151Z,100841.68
2018-06-19T08:25:51.095Z,100851.48
2018-06-19T08:28:54.378Z,100845.38
2018-06-19T08:31:57.335Z,100852.30
2018-06-19T08:35:00.248Z,100855.30
2018-06-19T08:38:03.193Z,100849.16
2018-06-19T08:41:06.744Z,100854.38
2018-06-19T08:44:09.806Z,100860.14
2018-06-19T08:47:12.736Z,100859.84
2018-06-19T08:50:15.702Z,100865.28
2018-06-19T08:53:18.681Z,100862.69
2018-06-19T08:56:21.646Z,100866.02
2018-06-19T08:59:24.601Z,100866.16
2018-06-19T09:02:27.553Z,100859.35
2018-06-19T09:05:30.602Z,100871.91
2018-06-19T09:08:33.542Z,100881.50
2018-06-19T09:11:36.485Z,100880.84
2018-06-19T09:14:39.385Z,100879.73
2018-06-19T09:17:42.334Z,100878.71
2018-06-19T09:20:45.261Z,100883.00
2018-06-19T09:23:49.744Z,100880.70
2018-06-19T09:26:52.741Z,100879.67
2018-06-19T09:29:55.677Z,100879.69
2018-06-19T09:32:58.601Z,100883.03
2018-06-19T09:36:01.534Z,100877.66
2018-06-19T09:39:08.007Z,100875.39
2018-06-19T09:42:17.757Z,100881.11
2018-06-19T09:45:20.762Z,100888.34
2018-06-19T09:48:23.883Z,100881.97
2018-06-19T09:51:26.995Z,100889.09
2018-06-19T09:54:29.995Z,100882.15
2018-06-19T09:57:33.034Z,100885.22
2018-06-19T10:00:36.481Z,100883.80
2018-06-19T10:03:39.550Z,100890.59
2018-06-19T10:06:42.643Z,100885.22
2018-06-19T10:09:45.602Z,100882.50
2018-06-19T10:12:48.675Z,100883.67
2018-06-19T10:15:51.609Z,100892.95
2018-06-19T10:18:54.566Z,100893.66
2018-06-19T10:21:57.494Z,100895.36
2018-06-19T10:25:00.477Z,100889.42
2018-06-19T10:28:03.454Z,100896.30
2018-06-19T10:31:06.511Z,100894.00
2018-06-19T10:34:09.431Z,100898.29
2018-06-19T10:37:12.453Z,100901.19
2018-06-19T10:40:15.472Z,100903.34
2018-06-19T10:43:18.422Z,100905.65
2018-06-19T10:46:21.792Z,100899.39
2018-06-19T10:49:24.898Z,100904.91
2018-06-19T10:52:28.026Z,100908.70
2018-06-19T10:55:31.065Z,100903.70
2018-06-19T10:58:34.040Z,100911.25
2018-06-19T11:01:37.106Z,100910.55
2018-06-19T11:04:43.037Z,100909.54
2018-06-19T11:07:46.223Z,100916.41
2018-06-19T11:10:49.500Z,100911.92
2018-06-19T11:13:52.489Z,100919.13
2018-06-19T11:16:55.496Z,100914.33
2018-06-19T11:19:58.530Z,100916.50
2018-06-19T11:23:01.519Z,100916.57
2018-06-19T11:26:04.627Z,100915.98
2018-06-19T11:29:07.610Z,100913.00
2018-06-19T11:32:10.657Z,100910.10
2018-06-19T11:35:13.654Z,100909.58
2018-06-19T11:38:16.646Z,100912.98
2018-06-19T11:41:20.061Z,100914.91
2018-06-19T11:44:23.097Z,100913.02
2018-06-19T11:47:26.056Z,100917.95
2018-06-19T11:50:29.048Z,100917.45
2018-06-19T11:53:32.109Z,100913.31
2018-06-19T11:56:35.131Z,100919.27
2018-06-19T11:59:38.121Z,100924.36
2018-06-19T12:02:41.146Z,100917.97
2018-06-19T12:05:44.150Z,100912.44
2018-06-19T12:08:47.098Z,100905.89
2018-06-19T12:11:50.349Z,100902.98
2018-06-19T12:14:53.376Z,100903.91
2018-06-19T12:17:56.344Z,100907.07
2018-06-19T12:20:59.585Z,100903.23
2018-06-19T12:24:02.709Z,100895.63
2018-06-19T12:27:05.947Z,100900.48
2018-06-19T12:30:08.918Z,100897.45
2018-06-19T12:33:11.941Z,100897.58
2018-06-19T12:36:14.874Z,100901.39
2018-06-19T12:39:17.799Z,100906.59
2018-06-19T12:42:21.156Z,100900.66
2018-06-19T12:45:24.097Z,100894.89
2018-06-19T12:48:27.065Z,100905.95
2018-06-19T12:51:52.640Z,100896.72
2018-06-19T12:55:40.659Z,100905.56
2018-06-19T12:58:43.996Z,100908.46
2018-06-19T13:01:46.980Z,100903.56
2018-06-19T13:05:07.351Z,100904.08
2018-06-19T13:08:10.272Z,100910.06
2018-06-19T13:11:13.256Z,100906.81
2018-06-19T13:14:35.869Z,100911.03
2018-06-19T13:17:56.168Z,100909.48
2018-06-19T13:20:59.156Z,100906.94
2018-06-19T13:24:02.078Z,100915.13
2018-06-19T13:27:05.068Z,100920.16
2018-06-19T13:30:25.287Z,100917.05
2018-06-19T13:33:28.256Z,100909.55
2018-06-19T13:36:31.179Z,100915.50
2018-06-19T13:39:34.830Z,100905.43
2018-06-19T13:43:53.264Z,100900.78
2018-06-19T13:46:56.195Z,100902.04
2018-06-19T13:49:59.168Z,100903.23
2018-06-19T13:53:02.149Z,100903.39
2018-06-19T13:57:28.349Z,100898.95
2018-06-19T14:00:31.328Z,100897.22
2018-06-19T14:03:34.369Z,100897.67
2018-06-19T14:06:37.346Z,100897.48
2018-06-19T14:10:05.877Z,100893.47
2018-06-19T14:13:08.900Z,100898.66
2018-06-19T14:16:11.898Z,100889.77
2018-06-19T14:19:14.893Z,100897.16
2018-06-19T14:22:17.900Z,100894.37
2018-06-19T14:25:21.171Z,100894.59
2018-06-19T14:28:24.126Z,100902.84
2018-06-19T14:31:27.103Z,100894.24
2018-06-19T14:34:30.052Z,100905.00
2018-06-19T14:37:32.977Z,100892.50
2018-06-19T14:40:35.919Z,100891.63
2018-06-19T14:43:38.854Z,100899.75
2018-06-19T14:46:41.861Z,100893.75
2018-06-19T14:49:44.746Z,100902.29
2018-06-19T14:52:47.708Z,100892.31
2018-06-19T14:55:50.651Z,100894.58
2018-06-19T14:58:53.593Z,100896.89
2018-06-19T15:01:56.589Z,100895.95
2018-06-19T15:04:59.587Z,100899.59
2018-06-19T15:08:02.559Z,100892.40
2018-06-19T15:11:05.483Z,100884.20
2018-06-19T15:14:08.456Z,100883.06
2018-06-19T15:17:11.473Z,100888.80
2018-06-19T15:20:14.525Z,100884.27
2018-06-19T15:23:17.492Z,100893.04
2018-06-19T15:26:20.430Z,100894.63
2018-06-19T15:29:23.392Z,100886.95
2018-06-19T15:32:26.314Z,100889.92
2018-06-19T15:35:29.257Z,100892.50
2018-06-19T15:38:32.215Z,100888.83
2018-06-19T15:41:35.186Z,100889.09
2018-06-19T15:44:38.128Z,100881.88
2018-06-19T15:47:41.072Z,100882.19
2018-06-19T15:50:43.998Z,100881.56
2018-06-19T15:53:46.914Z,100872.68
2018-06-19T15:56:50.090Z,100873.11
2018-06-19T15:59:54.447Z,100874.39
2018-06-19T16:02:58.141Z,100884.02
2018-06-19T16:06:01.671Z,100873.40
2018-06-19T16:09:08.541Z,100871.08
2018-06-19T16:12:12.673Z,100873.31
2018-06-19T16:15:15.905Z,100875.53
2018-06-19T16:18:19.101Z,100872.88
2018-06-19T16:21:22.607Z,100874.94
2018-06-19T16:24:25.632Z,100874.41
2018-06-19T16:27:29.364Z,100872.09
2018-06-19T16:30:32.797Z,100869.01
2018-06-19T16:33:36.522Z,100869.08
2018-06-19T16:36:39.689Z,100872.18
2018-06-19T16:39:42.761Z,100873.55
2018-06-19T16:42:45.772Z,100877.13
2018-06-19T16:45:48.964Z,100879.21
2018-06-19T16:48:51.923Z,100873.97
2018-06-19T16:51:54.869Z,100869.31
2018-06-19T16:54:57.816Z,100872.99
2018-06-19T16:58:00.788Z,100870.11
2018-06-19T17:01:03.784Z,100873.46
2018-06-19T17:04:06.698Z,100866.23
2018-06-19T17:07:09.610Z,100867.42
2018-06-19T17:10:13.624Z,100873.08
2018-06-19T17:13:16.565Z,100872.44
2018-06-19T17:16:19.499Z,100870.52
2018-06-19T17:19:22.471Z,100877.35
2018-06-19T17:22:25.435Z,100872.66
2018-06-19T17:25:28.429Z,100869.97
2018-06-19T17:28:31.378Z,100870.20
2018-06-19T17:31:34.313Z,100869.60
2018-06-19T17:34:37.278Z,100870.30
2018-06-19T17:37:40.250Z,100866.91
2018-06-19T17:40:43.213Z,100865.38
2018-06-19T17:43:46.282Z,100864.68
2018-06-19T17:46:49.226Z,100865.70
2018-06-19T17:49:52.180Z,100864.45
2018-06-19T17:52:55.125Z,100864.55
2018-06-19T17:55:58.082Z,100866.36
2018-06-19T17:59:01.052Z,100862.05
2018-06-19T18:02:04.128Z,100862.47
2018-06-19T18:05:07.120Z,100857.80
2018-06-19T18:08:10.075Z,100864.05
2018-06-19T18:11:13.022Z,100860.81
2018-06-19T18:14:16.294Z,100859.77
2018-06-19T18:17:19.416Z,100864.88
2018-06-19T18:20:22.367Z,100813.72
2018-06-19T18:23:25.337Z,100863.92
2018-06-19T18:26:28.301Z,100855.83
2018-06-19T18:29:31.229Z,100863.05
2018-06-19T18:32:34.179Z,100860.55
2018-06-19T18:35:37.120Z,100853.87
2018-06-19T18:38:40.074Z,100858.52
2018-06-19T18:41:42.998Z,100854.48
2018-06-19T18:44:46.014Z,100850.03
2018-06-19T18:47:48.935Z,100858.13
2018-06-19T18:50:51.901Z,100859.29
2018-06-19T18:53:54.902Z,100854.37
2018-06-19T18:56:58.630Z,100856.67
2018-06-19T19:00:02.353Z,100859.45
2018-06-19T19:03:06.860Z,100854.73
2018-06-19T19:06:10.253Z,100865.54
2018-06-19T19:09:13.277Z,100865.91
2018-06-19T19:12:16.663Z,100861.77
2018-06-19T19:15:25.705Z,100858.28
2018-06-19T19:18:35.029Z,100863.79
2018-06-19T19:21:39.114Z,100864.53
2018-06-19T19:24:42.579Z,100858.06
2018-06-19T19:27:51.836Z,100858.27
2018-06-19T19:30:55.119Z,100865.37
2018-06-19T19:33:58.344Z,100867.16
2018-06-19T19:37:07.303Z,100869.27
2018-06-19T19:40:10.397Z,100870.73
2018-06-19T19:43:14.855Z,100862.69
2018-06-19T19:46:25.101Z,100868.40
2018-06-19T19:49:28.361Z,100869.39
2018-06-19T19:52:31.829Z,100877.25
2018-06-19T19:55:39.438Z,100876.17
2018-06-19T19:58:48.697Z,100877.87
2018-06-19T20:01:51.893Z,100880.56
2018-06-19T20:04:55.414Z,100888.06
2018-06-19T20:07:58.908Z,100884.08
2018-06-19T20:11:02.645Z,100890.00
2018-06-19T20:14:06.302Z,100897.34
2018-06-19T20:17:09.589Z,100900.78
2018-06-19T20:20:13.509Z,100899.80
2018-06-19T20:23:16.554Z,100895.27
2018-06-19T20:26:19.894Z,100900.55
2018-06-19T20:29:23.611Z,100900.80
2018-06-19T20:32:26.650Z,100901.37
2018-06-19T20:35:30.145Z,100904.64
2018-06-19T20:38:33.641Z,100909.03
2018-06-19T20:41:36.841Z,100908.61
2018-06-19T20:44:41.993Z,100907.00
2018-06-19T20:47:45.158Z,100908.44
2018-06-19T20:50:48.240Z,100904.07
2018-06-19T20:53:51.437Z,100910.27
2018-06-19T20:56:55.063Z,100905.75
2018-06-19T20:59:58.162Z,100911.00
2018-06-19T21:03:01.275Z,100908.56
2018-06-19T21:06:04.906Z,100906.96
2018-06-19T21:09:09.014Z,100910.23
2018-06-19T21:12:12.298Z,100910.47
2018-06-19T21:15:15.361Z,100906.34
2018-06-19T21:18:18.338Z,100904.12
2018-06-19T21:21:21.427Z,100903.98
2018-06-19T21:24:25.018Z,100907.41
2018-06-19T21:27:27.949Z,100894.81
2018-06-19T21:30:30.900Z,100913.48
2018-06-19T21:33:35.089Z,100912.69
2018-06-19T21:36:38.109Z,100913.27
2018-06-19T21:39:44.112Z,100901.28
2018-06-19T21:42:47.077Z,100898.45
2018-06-19T21:45:50.196Z,100900.34
2018-06-19T21:48:53.272Z,100903.52
2018-06-19T21:51:56.374Z,100900.89
2018-06-19T21:54:59.282Z,100904.78
2018-06-19T21:58:02.413Z,100903.44
2018-06-19T22:01:05.642Z,100905.91
2018-06-19T22:04:08.747Z,100896.52
2018-06-19T22:07:11.878Z,100895.36
2018-06-19T22:10:14.838Z,100889.42
2018-06-19T22:13:21.010Z,100883.23
2018-06-19T22:16:24.017Z,100895.47
2018-06-19T22:19:26.974Z,100891.58
2018-06-19T22:22:30.051Z,100886.98
2018-06-19T22:25:32.961Z,100891.10
2018-06-19T22:28:35.900Z,100894.20
2018-06-19T22:31:39.060Z,100892.77
2018-06-19T22:34:43.050Z,100889.28
2018-06-19T22:37:46.108Z,100895.88
2018-06-19T22:40:49.223Z,100893.98
2018-06-19T22:43:52.358Z,100891.83
2018-06-19T22:46:55.394Z,100889.68
2018-06-19T22:49:58.574Z,100892.56
2018-06-19T22:53:01.598Z,100894.16
2018-06-19T22:56:04.677Z,100889.25
2018-06-19T22:59:07.630Z,100885.75
2018-06-19T23:02:10.803Z,100887.24
2018-06-19T23:05:13.830Z,100882.62
2018-06-19T23:08:16.932Z,100885.75
2018-06-19T23:11:20.069Z,100885.35
2018-06-19T23:14:23.028Z,100887.09
2018-06-19T23:17:25.999Z,100887.39
2018-06-19T23:20:29.098Z,100881.78
2018-06-19T23:23:32.329Z,100887.09
2018-06-19T23:26:35.313Z,100889.94
2018-06-19T23:29:38.492Z,100889.72
2018-06-19T23:32:41.688Z,100890.16
2018-06-19T23:35:44.770Z,100883.68
2018-06-19T23:38:47.747Z,100885.75
2018-06-19T23:41:50.933Z,100888.81
2018-06-19T23:44:54.215Z,100884.87
2018-06-19T23:47:57.246Z,100884.27
2018-06-19T23:51:00.343Z,100878.55
2018-06-19T23:54:03.581Z,100874.73
2018-06-19T23:57:06.939Z,100873.09
